createdAt,value
2023-03-10T00:01:10.287Z,12.94
2023-03-10T00:02:46.684Z,12.86
2023-03-10T00:04:18.220Z,12.80
2023-03-10T00:05:49.774Z,12.71
2023-03-10T00:07:21.358Z,12.66
2023-03-10T00:08:53.081Z,12.68
2023-03-10T00:10:24.620Z,12.70
2023-03-10T00:11:56.093Z,12.72
2023-03-10T00:13:27.821Z,12.73
2023-03-10T00:14:59.605Z,12.75
2023-03-10T00:16:31.443Z,12.77
2023-03-10T00:18:03.038Z,12.76
2023-03-10T00:19:34.864Z,12.73
2023-03-10T00:21:06.912Z,12.71
2023-03-10T00:22:39.009Z,12.68
2023-03-10T00:24:10.568Z,12.64
2023-03-10T00:25:42.060Z,12.64
2023-03-10T00:27:13.639Z,12.62
2023-03-10T00:28:45.282Z,12.63
2023-03-10T00:30:16.934Z,12.66
2023-03-10T00:31:48.561Z,12.69
2023-03-10T00:33:20.069Z,12.68
2023-03-10T00:34:51.534Z,12.66
2023-03-10T00:36:24.007Z,12.65
2023-03-10T00:38:02.769Z,12.61
2023-03-10T00:39:34.213Z,12.56
2023-03-10T00:41:09.402Z,12.52
2023-03-10T00:42:41.241Z,12.48
2023-03-10T00:44:12.852Z,12.43
2023-03-10T00:45:44.609Z,12.42
2023-03-10T00:47:16.262Z,12.42
2023-03-10T00:48:47.879Z,12.41
2023-03-10T00:50:19.496Z,12.39
2023-03-10T00:51:51.102Z,12.38
2023-03-10T00:53:22.717Z,12.39
2023-03-10T00:54:54.548Z,12.39
2023-03-10T00:56:26.981Z,12.41
2023-03-10T00:57:58.578Z,12.42
2023-03-10T00:59:40.482Z,12.41
2023-03-10T01:01:21.219Z,12.40
2023-03-10T01:02:55.573Z,12.41
2023-03-10T01:04:27.334Z,12.43
2023-03-10T01:05:58.906Z,12.45
2023-03-10T01:07:30.493Z,12.44
2023-03-10T01:09:02.045Z,12.42
2023-03-10T01:10:33.621Z,12.43
2023-03-10T01:12:05.224Z,12.42
2023-03-10T01:13:37.599Z,12.41
2023-03-10T01:15:11.023Z,12.41
2023-03-10T01:16:42.568Z,12.39
2023-03-10T01:18:14.266Z,12.38
2023-03-10T01:19:46.264Z,12.37
2023-03-10T01:21:22.128Z,12.38
2023-03-10T01:22:53.648Z,12.37
2023-03-10T01:24:25.414Z,12.31
2023-03-10T01:25:57.031Z,12.25
2023-03-10T01:27:28.636Z,12.22
2023-03-10T01:29:00.298Z,12.26
2023-03-10T01:30:31.800Z,12.30
2023-03-10T01:32:03.684Z,12.33
2023-03-10T01:33:35.504Z,12.34
2023-03-10T01:35:07.314Z,12.41
2023-03-10T01:36:38.850Z,12.41
2023-03-10T01:40:11.286Z,12.41
2023-03-10T01:41:43.349Z,12.37
2023-03-10T01:43:21.237Z,12.37
2023-03-10T01:45:05.002Z,12.47
2023-03-10T01:46:36.815Z,12.52
2023-03-10T01:48:08.412Z,12.52
2023-03-10T01:49:40.539Z,12.50
2023-03-10T01:51:12.076Z,12.49
2023-03-10T01:52:44.293Z,12.46
2023-03-10T01:54:17.284Z,12.51
2023-03-10T01:55:50.592Z,12.53
2023-03-10T01:57:22.843Z,12.54
2023-03-10T01:58:54.859Z,12.50
2023-03-10T02:00:26.755Z,12.44
2023-03-10T02:01:58.305Z,12.38
2023-03-10T02:03:55.852Z,12.35
2023-03-10T02:05:27.359Z,12.35
2023-03-10T02:06:58.930Z,12.33
2023-03-10T02:08:32.139Z,12.32
2023-03-10T02:10:04.000Z,12.31
2023-03-10T02:11:35.585Z,12.30
2023-03-10T02:13:07.306Z,12.32
2023-03-10T02:14:39.046Z,12.30
2023-03-10T02:16:10.710Z,12.28
2023-03-10T02:17:42.376Z,12.25
2023-03-10T02:19:20.149Z,12.23
2023-03-10T02:20:54.633Z,12.22
2023-03-10T02:22:26.284Z,12.17
2023-03-10T02:24:05.829Z,12.13
2023-03-10T02:25:57.363Z,12.10
2023-03-10T02:27:33.196Z,12.06
2023-03-10T02:29:06.045Z,12.00
2023-03-10T02:30:38.951Z,11.99
2023-03-10T02:32:10.836Z,11.99
2023-03-10T02:33:44.017Z,12.00
2023-03-10T02:35:15.711Z,12.00
2023-03-10T02:36:47.542Z,11.99
2023-03-10T02:38:19.438Z,11.97
2023-03-10T02:39:51.023Z,11.97
2023-03-10T02:41:27.319Z,11.95
2023-03-10T02:42:59.745Z,11.90
2023-03-10T02:44:33.887Z,11.88
2023-03-10T02:46:05.647Z,11.89
2023-03-10T02:47:38.075Z,11.89
2023-03-10T02:49:11.098Z,11.88
2023-03-10T02:50:42.748Z,11.83
2023-03-10T02:52:24.195Z,11.81
2023-03-10T02:53:56.272Z,11.77
2023-03-10T02:55:28.033Z,11.74
2023-03-10T02:59:02.021Z,11.74
2023-03-10T03:00:33.617Z,11.72
2023-03-10T03:02:05.842Z,11.73
2023-03-10T03:03:37.599Z,11.77
2023-03-10T03:05:09.461Z,11.79
2023-03-10T03:06:41.329Z,11.82
2023-03-10T03:08:13.348Z,11.83
2023-03-10T03:09:45.232Z,11.84
2023-03-10T03:11:16.930Z,11.83
2023-03-10T03:12:50.629Z,11.83
2023-03-10T03:14:22.325Z,11.83
2023-03-10T03:15:53.895Z,11.85
2023-03-10T03:17:25.599Z,11.85
2023-03-10T03:18:57.453Z,11.84
2023-03-10T03:20:29.359Z,11.81
2023-03-10T03:22:00.970Z,11.77
2023-03-10T03:23:33.860Z,11.72
2023-03-10T03:25:06.112Z,11.69
2023-03-10T03:26:37.722Z,11.67
2023-03-10T03:28:10.065Z,11.65
2023-03-10T03:29:41.669Z,11.64
2023-03-10T03:31:14.325Z,11.61
2023-03-10T03:32:45.987Z,11.61
2023-03-10T03:34:17.603Z,11.60
2023-03-10T03:35:49.455Z,11.59
2023-03-10T03:37:21.011Z,11.58
2023-03-10T03:38:52.590Z,11.59
2023-03-10T03:40:24.745Z,11.59
2023-03-10T03:41:57.544Z,11.60
2023-03-10T03:43:29.691Z,11.61
2023-03-10T03:45:01.440Z,11.61
2023-03-10T03:46:33.267Z,11.61
2023-03-10T03:48:05.217Z,11.65
2023-03-10T03:49:37.934Z,11.69
2023-03-10T03:51:09.450Z,11.69
2023-03-10T03:52:41.295Z,11.69
2023-03-10T03:54:13.044Z,11.64
2023-03-10T03:55:44.711Z,11.62
2023-03-10T03:57:16.411Z,11.61
2023-03-10T03:58:48.128Z,11.59
2023-03-10T04:00:20.665Z,11.56
2023-03-10T04:01:52.411Z,11.55
2023-03-10T04:03:24.292Z,11.55
2023-03-10T04:04:56.501Z,11.57
2023-03-10T04:06:28.367Z,11.58
2023-03-10T04:07:59.900Z,11.59
2023-03-10T04:09:31.594Z,11.65
2023-03-10T04:11:03.254Z,11.71
2023-03-10T04:12:35.082Z,11.71
2023-03-10T04:14:06.810Z,11.74
2023-03-10T04:15:38.719Z,11.73
2023-03-10T04:17:12.262Z,11.73
2023-03-10T04:18:44.945Z,11.73
2023-03-10T04:20:16.733Z,11.76
2023-03-10T04:21:48.242Z,11.79
2023-03-10T04:23:20.145Z,11.85
2023-03-10T04:24:51.838Z,11.89
2023-03-10T04:26:23.610Z,11.92
2023-03-10T04:27:55.562Z,11.98
2023-03-10T04:29:27.967Z,11.99
2023-03-10T04:30:59.932Z,11.97
2023-03-10T04:32:32.547Z,11.96
2023-03-10T04:34:04.310Z,11.95
2023-03-10T04:35:38.833Z,11.98
2023-03-10T04:37:10.400Z,12.03
2023-03-10T04:38:41.916Z,12.07
2023-03-10T04:40:13.844Z,12.09
2023-03-10T04:41:45.658Z,12.10
2023-03-10T04:43:17.280Z,12.08
2023-03-10T04:44:48.964Z,12.07
2023-03-10T04:46:20.647Z,12.06
2023-03-10T04:47:52.551Z,12.04
2023-03-10T04:49:24.134Z,12.03
2023-03-10T04:50:58.848Z,12.04
2023-03-10T04:52:30.503Z,12.01
2023-03-10T04:54:02.176Z,11.99
2023-03-10T04:55:34.096Z,12.01
2023-03-10T04:57:05.734Z,12.03
2023-03-10T04:58:37.614Z,12.01
2023-03-10T05:00:10.268Z,11.97
2023-03-10T05:01:42.140Z,11.94
2023-03-10T05:03:14.008Z,11.95
2023-03-10T05:04:46.071Z,11.97
2023-03-10T05:06:19.858Z,12.05
2023-03-10T05:07:52.218Z,12.12
2023-03-10T05:09:24.362Z,12.17
2023-03-10T05:10:55.904Z,12.23
2023-03-10T05:12:32.968Z,12.25
2023-03-10T05:14:13.528Z,12.29
2023-03-10T05:15:49.017Z,12.24
2023-03-10T05:17:28.024Z,12.17
2023-03-10T05:22:43.477Z,12.00
2023-03-10T05:24:15.519Z,11.99
2023-03-10T05:25:47.220Z,12.08
2023-03-10T05:27:19.977Z,12.15
2023-03-10T05:28:51.515Z,12.10
2023-03-10T05:30:23.135Z,12.01
2023-03-10T05:31:54.711Z,11.92
2023-03-10T05:33:26.382Z,11.88
2023-03-10T05:34:57.809Z,11.84
2023-03-10T05:36:29.686Z,11.79
2023-03-10T05:38:01.202Z,11.72
2023-03-10T05:39:32.690Z,11.63
2023-03-10T05:41:09.722Z,11.60
2023-03-10T05:42:41.294Z,11.57
2023-03-10T05:44:12.858Z,11.59
2023-03-10T05:45:44.385Z,11.61
2023-03-10T05:47:19.146Z,11.65
2023-03-10T05:48:50.830Z,11.70
2023-03-10T05:50:22.381Z,11.77
2023-03-10T05:51:53.846Z,11.80
2023-03-10T05:53:25.552Z,11.83
2023-03-10T05:54:57.027Z,11.90
2023-03-10T05:56:28.558Z,11.94
2023-03-10T05:58:00.097Z,12.00
2023-03-10T05:59:31.772Z,12.04
2023-03-10T06:01:03.396Z,12.06
2023-03-10T06:05:15.732Z,12.12
2023-03-10T06:09:20.137Z,12.22
2023-03-10T06:10:51.711Z,12.28
2023-03-10T06:12:23.341Z,12.34
2023-03-10T06:13:54.931Z,12.43
2023-03-10T06:15:32.699Z,12.43
2023-03-10T06:17:04.372Z,12.48
2023-03-10T06:18:36.146Z,12.54
2023-03-10T06:20:11.651Z,12.55
2023-03-10T06:21:44.872Z,12.51
2023-03-10T06:23:17.091Z,12.51
2023-03-10T06:24:48.560Z,12.52
2023-03-10T06:26:20.168Z,12.53
2023-03-10T06:27:51.655Z,12.58
2023-03-10T06:29:23.277Z,12.68
2023-03-10T06:30:56.333Z,12.77
2023-03-10T06:32:39.938Z,12.82
2023-03-10T06:34:13.843Z,12.84
2023-03-10T06:35:45.700Z,12.84
2023-03-10T06:37:17.315Z,12.88
2023-03-10T06:38:48.826Z,12.93
2023-03-10T06:40:20.473Z,12.99
2023-03-10T06:41:51.956Z,13.03
2023-03-10T06:43:23.510Z,13.04
2023-03-10T06:44:55.614Z,13.08
2023-03-10T06:46:28.636Z,13.16
2023-03-10T06:48:01.094Z,13.22
2023-03-10T06:49:33.065Z,13.25
2023-03-10T06:51:09.493Z,13.28
2023-03-10T06:52:44.074Z,13.35
2023-03-10T06:54:28.528Z,13.49
2023-03-10T06:56:04.624Z,13.60
2023-03-10T06:57:36.252Z,13.61
2023-03-10T06:59:07.893Z,13.68
2023-03-10T07:00:39.821Z,13.76
2023-03-10T07:02:17.397Z,13.80
2023-03-10T07:03:50.006Z,13.79
2023-03-10T07:05:26.548Z,13.75
2023-03-10T07:07:06.100Z,13.70
2023-03-10T07:08:41.933Z,13.65
2023-03-10T07:10:28.476Z,13.63
2023-03-10T07:12:00.418Z,13.63
2023-03-10T07:13:32.017Z,13.68
2023-03-10T07:15:03.833Z,13.73
2023-03-10T07:16:35.647Z,13.69
2023-03-10T07:18:07.364Z,13.70
2023-03-10T07:19:38.855Z,13.65
2023-03-10T07:21:15.011Z,13.70
2023-03-10T07:22:51.336Z,13.73
2023-03-10T07:24:25.395Z,13.78
2023-03-10T07:25:58.423Z,13.83
2023-03-10T07:27:30.547Z,13.89
2023-03-10T07:29:03.536Z,13.94
2023-03-10T07:30:35.084Z,14.08
2023-03-10T07:32:06.656Z,14.21
2023-03-10T07:33:39.184Z,14.29
2023-03-10T07:35:15.411Z,14.36
2023-03-10T07:36:48.312Z,14.37
2023-03-10T07:38:24.289Z,14.43
2023-03-10T07:39:56.291Z,14.53
2023-03-10T07:41:31.837Z,14.58
2023-03-10T07:43:05.121Z,14.65
2023-03-10T07:44:36.945Z,14.66
2023-03-10T07:46:09.795Z,14.67
2023-03-10T07:47:41.710Z,14.71
2023-03-10T07:49:13.382Z,14.72
2023-03-10T07:50:45.000Z,14.80
2023-03-10T07:52:16.790Z,14.82
2023-03-10T07:53:48.394Z,14.90
2023-03-10T07:55:19.999Z,15.00
2023-03-10T07:56:51.727Z,15.05
2023-03-10T07:58:23.368Z,15.11
2023-03-10T07:59:55.376Z,15.21
2023-03-10T08:01:27.261Z,15.37
2023-03-10T08:02:58.884Z,15.48
2023-03-10T08:04:30.816Z,15.65
2023-03-10T08:06:03.976Z,15.85
2023-03-10T08:07:35.986Z,15.99
2023-03-10T08:09:07.828Z,16.22
2023-03-10T08:10:40.416Z,16.34
2023-03-10T08:12:12.075Z,16.49
2023-03-10T08:13:46.511Z,16.65
2023-03-10T08:15:22.152Z,16.81
2023-03-10T08:16:59.250Z,16.90
2023-03-10T08:18:35.223Z,16.97
2023-03-10T08:20:10.575Z,17.10
2023-03-10T08:21:42.190Z,17.15
2023-03-10T08:23:13.734Z,17.22
2023-03-10T08:24:45.654Z,17.24
2023-03-10T08:26:17.726Z,17.09
2023-03-10T08:27:50.252Z,16.97
2023-03-10T08:29:22.374Z,16.88
2023-03-10T08:31:04.435Z,16.69
2023-03-10T08:32:37.761Z,16.50
2023-03-10T08:34:09.299Z,16.22
2023-03-10T08:35:41.600Z,16.12
2023-03-10T08:37:13.318Z,16.07
2023-03-10T08:38:45.531Z,16.02
2023-03-10T08:40:17.224Z,15.97
2023-03-10T08:41:49.978Z,15.92
2023-03-10T08:43:21.607Z,15.97
2023-03-10T08:44:55.407Z,15.92
2023-03-10T08:46:27.947Z,15.92
2023-03-10T08:47:59.499Z,15.97
2023-03-10T08:49:31.545Z,16.05
2023-03-10T08:51:04.403Z,16.10
2023-03-10T08:52:36.321Z,16.12
2023-03-10T08:54:07.988Z,16.16
2023-03-10T08:55:40.388Z,16.19
2023-03-10T08:57:12.006Z,16.24
2023-03-10T08:58:44.186Z,16.24
2023-03-10T09:00:17.285Z,16.29
2023-03-10T09:01:49.105Z,16.32
2023-03-10T09:03:20.948Z,16.37
2023-03-10T09:04:52.886Z,16.41
2023-03-10T09:06:24.467Z,16.47
2023-03-10T09:07:56.129Z,16.45
2023-03-10T09:09:27.871Z,16.41
2023-03-10T09:10:59.847Z,16.41
2023-03-10T09:12:35.576Z,16.28
2023-03-10T09:14:09.582Z,16.13
2023-03-10T09:16:12.006Z,16.02
2023-03-10T09:17:52.811Z,15.90
2023-03-10T09:20:01.243Z,15.83
2023-03-10T09:21:33.955Z,15.82
2023-03-10T09:23:05.844Z,15.74
2023-03-10T09:24:37.539Z,15.73
2023-03-10T09:26:09.156Z,15.70
2023-03-10T09:27:40.911Z,15.67
2023-03-10T09:29:12.545Z,15.61
2023-03-10T09:30:44.167Z,15.65
2023-03-10T09:32:15.921Z,15.65
2023-03-10T09:33:48.375Z,15.66
2023-03-10T09:35:21.028Z,15.69
2023-03-10T09:36:52.714Z,15.73
2023-03-10T09:38:28.805Z,15.71
2023-03-10T09:40:09.043Z,15.73
2023-03-10T09:42:02.682Z,15.73
2023-03-10T09:43:42.220Z,15.73
2023-03-10T09:47:52.184Z,15.71
2023-03-10T09:49:32.137Z,15.69
2023-03-10T09:51:06.656Z,15.74
2023-03-10T09:52:41.357Z,15.79
2023-03-10T09:54:34.893Z,15.76
2023-03-10T09:56:13.744Z,15.78
2023-03-10T09:57:47.096Z,15.79
2023-03-10T09:59:22.699Z,15.78
2023-03-10T10:00:54.857Z,15.75
2023-03-10T10:02:31.582Z,15.77
2023-03-10T10:04:08.303Z,15.83
2023-03-10T10:05:40.053Z,15.76
2023-03-10T10:07:14.583Z,15.71
2023-03-10T10:09:04.599Z,15.64
2023-03-10T10:10:37.582Z,15.52
2023-03-10T10:12:16.084Z,15.48
2023-03-10T10:13:48.200Z,15.46
2023-03-10T10:15:22.967Z,15.41
2023-03-10T10:17:13.174Z,15.26
2023-03-10T10:18:47.190Z,15.11
2023-03-10T10:20:20.655Z,14.98
2023-03-10T10:21:58.057Z,14.86
2023-03-10T10:23:40.549Z,14.80
2023-03-10T10:25:16.997Z,14.78
2023-03-10T10:26:48.909Z,14.75
2023-03-10T10:28:33.352Z,14.78
2023-03-10T10:30:26.139Z,14.81
2023-03-10T10:32:04.775Z,14.77
2023-03-10T10:33:51.197Z,14.76
2023-03-10T10:35:23.747Z,14.69
2023-03-10T10:36:55.999Z,14.68
2023-03-10T10:38:28.477Z,14.68
2023-03-10T10:40:00.289Z,14.68
2023-03-10T10:41:32.742Z,14.62
2023-03-10T10:43:07.746Z,14.55
2023-03-10T10:44:42.632Z,14.55
2023-03-10T10:46:15.145Z,14.60
2023-03-10T10:47:50.405Z,14.66
2023-03-10T10:49:24.788Z,14.70
2023-03-10T10:50:56.376Z,14.73
2023-03-10T10:52:27.994Z,14.75
2023-03-10T10:54:00.182Z,14.71
2023-03-10T10:55:35.204Z,14.77
2023-03-10T10:57:16.141Z,14.79
2023-03-10T10:59:03.147Z,14.79
2023-03-10T11:00:37.029Z,14.77
2023-03-10T11:02:25.016Z,14.71
2023-03-10T11:04:04.854Z,14.67
2023-03-10T11:05:37.756Z,14.53
2023-03-10T11:07:17.426Z,14.57
2023-03-10T11:08:51.444Z,14.61
2023-03-10T11:10:26.374Z,14.70
2023-03-10T11:12:07.245Z,14.73
2023-03-10T11:13:59.590Z,14.68
2023-03-10T11:15:33.853Z,14.64
2023-03-10T11:17:20.452Z,14.59
2023-03-10T11:19:21.605Z,14.42
2023-03-10T11:21:12.689Z,14.17
2023-03-10T11:22:55.989Z,14.04
2023-03-10T11:24:39.638Z,13.97
2023-03-10T11:26:17.807Z,13.90
2023-03-10T11:27:53.834Z,13.78
2023-03-10T11:29:40.270Z,13.65
2023-03-10T11:31:19.621Z,13.52
2023-03-10T11:33:08.417Z,13.44
2023-03-10T11:34:47.669Z,13.35
2023-03-10T11:36:29.782Z,13.23
2023-03-10T11:38:13.914Z,13.08
2023-03-10T11:39:49.373Z,12.98
2023-03-10T11:41:24.778Z,12.91
2023-03-10T11:43:25.702Z,12.83
2023-03-10T11:45:17.285Z,12.75
2023-03-10T11:46:51.060Z,12.73
2023-03-10T11:48:30.394Z,12.79
2023-03-10T11:50:24.092Z,12.78
2023-03-10T11:52:00.369Z,12.83
2023-03-10T11:53:37.853Z,12.89
2023-03-10T11:55:12.886Z,12.91
2023-03-10T11:56:50.303Z,13.01
2023-03-10T11:58:24.657Z,13.10
2023-03-10T12:00:02.164Z,13.13
2023-03-10T12:01:40.176Z,13.09
2023-03-10T12:03:21.187Z,13.09
2023-03-10T12:05:05.141Z,13.08
2023-03-10T12:06:46.005Z,13.11
2023-03-10T12:08:22.016Z,13.13
2023-03-10T12:09:58.404Z,13.16
2023-03-10T12:11:30.026Z,13.21
2023-03-10T12:13:02.336Z,13.21
2023-03-10T12:14:34.131Z,13.18
2023-03-10T12:16:06.364Z,13.11
2023-03-10T12:17:38.503Z,13.12
2023-03-10T12:19:10.579Z,13.13
2023-03-10T12:20:42.456Z,13.13
2023-03-10T12:22:23.472Z,13.11
2023-03-10T12:23:56.309Z,13.09
2023-03-10T12:25:28.126Z,13.10
2023-03-10T12:27:01.686Z,13.11
2023-03-10T12:28:34.058Z,13.12
2023-03-10T12:30:26.569Z,13.14
2023-03-10T12:31:58.555Z,13.18
2023-03-10T12:33:42.842Z,13.15
2023-03-10T12:35:29.210Z,13.18
2023-03-10T12:37:10.690Z,13.31
2023-03-10T12:38:42.766Z,13.44
2023-03-10T12:40:33.030Z,13.58
2023-03-10T12:42:26.124Z,13.72
2023-03-10T12:43:58.266Z,13.85
2023-03-10T12:45:29.781Z,13.95
2023-03-10T12:47:20.484Z,14.08
2023-03-10T12:49:06.989Z,14.25
2023-03-10T12:50:41.308Z,14.38
2023-03-10T12:52:25.445Z,14.49
2023-03-10T12:53:59.392Z,14.63
2023-03-10T12:55:31.037Z,14.74
2023-03-10T12:57:16.790Z,14.95
2023-03-10T12:58:55.205Z,15.18
2023-03-10T13:00:29.877Z,15.36
2023-03-10T13:02:01.397Z,15.56
2023-03-10T13:03:35.953Z,15.69
2023-03-10T13:05:08.250Z,15.65
2023-03-10T13:06:40.272Z,15.60
2023-03-10T13:08:13.299Z,15.74
2023-03-10T13:09:45.768Z,15.85
2023-03-10T13:11:20.458Z,15.97
2023-03-10T13:12:54.253Z,16.07
2023-03-10T13:14:36.489Z,16.14
2023-03-10T13:16:08.491Z,16.15
2023-03-10T13:17:40.647Z,16.19
2023-03-10T13:19:19.753Z,16.22
2023-03-10T13:20:51.575Z,16.16
2023-03-10T13:22:23.702Z,16.10
2023-03-10T13:23:56.349Z,16.17
2023-03-10T13:25:28.670Z,16.25
2023-03-10T13:27:04.444Z,16.21
2023-03-10T13:28:36.573Z,16.25
2023-03-10T13:30:11.340Z,16.26
2023-03-10T13:31:43.696Z,16.38
2023-03-10T13:33:26.109Z,16.43
2023-03-10T13:35:00.623Z,16.32
2023-03-10T13:36:36.506Z,16.23
2023-03-10T13:38:14.382Z,16.17
2023-03-10T13:39:46.203Z,16.18
2023-03-10T13:41:17.900Z,16.22
2023-03-10T13:42:49.661Z,16.28
2023-03-10T13:44:22.399Z,16.22
2023-03-10T13:45:55.497Z,16.11
2023-03-10T13:47:27.190Z,16.04
2023-03-10T13:49:04.242Z,16.03
2023-03-10T13:50:35.883Z,16.06
2023-03-10T13:52:08.104Z,16.10
2023-03-10T13:53:39.647Z,16.05
2023-03-10T13:55:14.780Z,16.02
2023-03-10T13:56:46.441Z,16.06
2023-03-10T13:58:18.129Z,16.04
2023-03-10T13:59:50.149Z,15.96
2023-03-10T14:01:28.244Z,15.91
2023-03-10T14:03:00.001Z,15.89
2023-03-10T14:04:38.574Z,15.87
2023-03-10T14:06:13.703Z,15.81
2023-03-10T14:07:45.367Z,15.81
2023-03-10T14:09:23.241Z,15.76
2023-03-10T14:11:13.632Z,15.73
2023-03-10T14:12:46.014Z,15.68
2023-03-10T14:14:30.955Z,15.55
2023-03-10T14:16:03.005Z,15.36
2023-03-10T14:17:35.380Z,15.25
2023-03-10T14:19:08.766Z,15.14
2023-03-10T14:20:40.858Z,15.08
2023-03-10T14:22:33.080Z,15.07
2023-03-10T14:24:11.116Z,15.08
2023-03-10T14:25:42.687Z,15.11
2023-03-10T14:27:14.304Z,15.09
2023-03-10T14:28:45.860Z,15.20
2023-03-10T14:30:24.766Z,15.29
2023-03-10T14:31:57.056Z,15.43
2023-03-10T14:33:29.066Z,15.49
2023-03-10T14:35:00.854Z,15.50
2023-03-10T14:36:32.420Z,15.42
2023-03-10T14:38:04.040Z,15.43
2023-03-10T14:39:35.525Z,15.52
2023-03-10T14:41:07.203Z,15.51
2023-03-10T14:42:39.849Z,15.63
2023-03-10T14:44:11.428Z,15.65
2023-03-10T14:45:44.887Z,15.68
2023-03-10T14:47:21.628Z,15.68
2023-03-10T14:48:55.030Z,15.66
2023-03-10T14:50:27.743Z,15.66
2023-03-10T14:52:00.097Z,15.70
2023-03-10T14:53:33.562Z,15.73
2023-03-10T14:55:08.086Z,15.75
2023-03-10T14:56:39.726Z,15.79
2023-03-10T14:58:12.790Z,15.85
2023-03-10T14:59:44.695Z,15.89
2023-03-10T15:01:16.385Z,15.93
2023-03-10T15:02:48.342Z,16.00
2023-03-10T15:04:20.326Z,16.01
2023-03-10T15:05:52.107Z,15.93
2023-03-10T15:07:23.704Z,15.93
2023-03-10T15:08:55.786Z,15.98
2023-03-10T15:10:33.554Z,16.06
2023-03-10T15:12:05.230Z,15.99
2023-03-10T15:13:37.219Z,15.96
2023-03-10T15:15:18.917Z,15.91
2023-03-10T15:16:50.747Z,15.80
2023-03-10T15:18:23.018Z,15.61
2023-03-10T15:19:55.346Z,15.50
2023-03-10T15:21:27.378Z,15.42
2023-03-10T15:22:59.474Z,15.25
2023-03-10T15:24:31.042Z,15.13
2023-03-10T15:26:09.807Z,15.02
2023-03-10T15:27:41.596Z,14.92
2023-03-10T15:29:13.700Z,14.76
2023-03-10T15:30:45.328Z,14.59
2023-03-10T15:32:17.111Z,14.52
2023-03-10T15:33:48.969Z,14.46
2023-03-10T15:35:21.948Z,14.41
2023-03-10T15:36:54.112Z,14.36
2023-03-10T15:38:25.800Z,14.35
2023-03-10T15:39:57.426Z,14.34
2023-03-10T15:41:29.012Z,14.35
2023-03-10T15:43:00.682Z,14.31
2023-03-10T15:44:32.303Z,14.32
2023-03-10T15:46:07.406Z,14.31
2023-03-10T15:47:39.184Z,14.30
2023-03-10T15:49:11.187Z,14.30
2023-03-10T15:50:43.284Z,14.28
2023-03-10T15:52:15.065Z,14.27
2023-03-10T15:53:47.062Z,14.27
2023-03-10T15:55:19.539Z,14.31
2023-03-10T15:56:51.911Z,14.30
2023-03-10T15:58:24.183Z,14.24
2023-03-10T15:59:56.216Z,14.21
2023-03-10T16:01:28.334Z,14.22
2023-03-10T16:02:59.981Z,14.23
2023-03-10T16:04:32.478Z,14.17
2023-03-10T16:06:04.928Z,14.07
2023-03-10T16:07:36.535Z,14.00
2023-03-10T16:09:13.881Z,13.91
2023-03-10T16:10:55.703Z,13.79
2023-03-10T16:12:28.781Z,13.76
2023-03-10T16:14:01.937Z,13.75
2023-03-10T16:15:33.675Z,13.76
2023-03-10T16:17:05.571Z,13.73
2023-03-10T16:18:37.257Z,13.70
2023-03-10T16:20:12.378Z,13.72
2023-03-10T16:21:46.129Z,13.74
2023-03-10T16:23:17.811Z,13.76
2023-03-10T16:24:49.488Z,13.78
2023-03-10T16:26:21.808Z,13.80
2023-03-10T16:27:53.510Z,13.80
2023-03-10T16:29:25.182Z,13.82
2023-03-10T16:30:56.891Z,13.81
2023-03-10T16:32:28.769Z,13.82
2023-03-10T16:34:00.347Z,13.86
2023-03-10T16:35:32.474Z,13.84
2023-03-10T16:37:04.152Z,13.84
2023-03-10T16:38:35.863Z,13.88
2023-03-10T16:40:08.355Z,13.94
2023-03-10T16:41:40.586Z,13.95
2023-03-10T16:43:12.410Z,13.98
2023-03-10T16:44:44.225Z,13.93
2023-03-10T16:46:18.007Z,13.92
2023-03-10T16:47:50.032Z,13.96
2023-03-10T16:49:22.215Z,13.97
2023-03-10T16:50:53.960Z,13.97
2023-03-10T16:52:25.745Z,13.98
2023-03-10T16:54:01.208Z,13.99
2023-03-10T16:55:32.806Z,13.99
2023-03-10T16:57:17.880Z,13.99
2023-03-10T16:58:57.508Z,14.00
2023-03-10T17:00:34.227Z,14.05
2023-03-10T17:02:14.593Z,14.04
2023-03-10T17:03:49.037Z,14.01
2023-03-10T17:05:23.383Z,13.97
2023-03-10T17:06:55.203Z,13.86
2023-03-10T17:08:27.530Z,13.84
2023-03-10T17:09:59.218Z,13.85
2023-03-10T17:11:32.087Z,13.93
2023-03-10T17:13:04.161Z,13.99
2023-03-10T17:14:36.460Z,13.96
2023-03-10T17:16:12.624Z,13.93
2023-03-10T17:17:44.778Z,13.91
2023-03-10T17:19:20.515Z,13.90
2023-03-10T17:20:52.444Z,13.85
2023-03-10T17:22:24.681Z,13.74
2023-03-10T17:23:56.803Z,13.67
2023-03-10T17:25:28.925Z,13.48
2023-03-10T17:27:00.729Z,13.30
2023-03-10T17:28:33.277Z,13.20
2023-03-10T17:30:06.683Z,13.02
2023-03-10T17:31:39.621Z,12.90
2023-03-10T17:33:11.310Z,12.81
2023-03-10T17:34:45.129Z,12.65
2023-03-10T17:36:18.106Z,12.58
2023-03-10T17:37:51.200Z,12.51
2023-03-10T17:39:23.031Z,12.48
2023-03-10T17:40:54.884Z,12.50
2023-03-10T17:42:29.114Z,12.48
2023-03-10T17:44:00.683Z,12.45
2023-03-10T17:45:34.462Z,12.44
2023-03-10T17:47:07.764Z,12.41
2023-03-10T17:48:45.371Z,12.41
2023-03-10T17:50:17.941Z,12.42
2023-03-10T17:51:50.072Z,12.44
2023-03-10T17:53:21.738Z,12.45
2023-03-10T17:54:53.477Z,12.46
2023-03-10T17:56:25.253Z,12.43
2023-03-10T17:57:56.974Z,12.44
2023-03-10T17:59:28.966Z,12.44
2023-03-10T18:01:07.266Z,12.44
2023-03-10T18:02:39.137Z,12.47
2023-03-10T18:04:10.774Z,12.46
2023-03-10T18:05:42.714Z,12.47
2023-03-10T18:07:14.280Z,12.49
2023-03-10T18:08:46.528Z,12.48
2023-03-10T18:10:18.539Z,12.51
2023-03-10T18:11:52.074Z,12.55
2023-03-10T18:13:27.135Z,12.55
2023-03-10T18:14:59.038Z,12.59
2023-03-10T18:16:31.766Z,12.57
2023-03-10T18:18:03.368Z,12.57
2023-03-10T18:19:35.247Z,12.56
2023-03-10T18:21:10.066Z,12.54
2023-03-10T18:22:41.734Z,12.50
2023-03-10T18:24:13.264Z,12.50
2023-03-10T18:25:46.666Z,12.52
2023-03-10T18:27:18.323Z,12.54
2023-03-10T18:28:50.264Z,12.59
2023-03-10T18:30:24.388Z,12.63
2023-03-10T18:31:56.109Z,12.63
2023-03-10T18:33:27.897Z,12.60
2023-03-10T18:34:59.983Z,12.59
2023-03-10T18:36:33.072Z,12.63
2023-03-10T18:38:08.440Z,12.64
2023-03-10T18:39:41.637Z,12.63
2023-03-10T18:41:16.231Z,12.67
2023-03-10T18:42:48.884Z,12.72
2023-03-10T18:44:24.231Z,12.81
2023-03-10T18:46:00.914Z,12.80
2023-03-10T18:47:33.713Z,12.71
2023-03-10T18:49:06.339Z,12.70
2023-03-10T18:50:38.296Z,12.67
2023-03-10T18:52:12.799Z,12.66
2023-03-10T18:53:45.635Z,12.68
2023-03-10T18:55:17.866Z,12.71
2023-03-10T18:56:50.674Z,12.72
2023-03-10T18:58:23.164Z,12.71
2023-03-10T18:59:56.669Z,12.67
2023-03-10T19:01:31.839Z,12.67
2023-03-10T19:03:08.976Z,12.66
2023-03-10T19:04:50.184Z,12.70
2023-03-10T19:06:22.687Z,12.71
2023-03-10T19:07:55.143Z,12.70
2023-03-10T19:09:28.109Z,12.68
2023-03-10T19:11:00.289Z,12.68
2023-03-10T19:12:31.955Z,12.63
2023-03-10T19:14:05.909Z,12.60
2023-03-10T19:15:38.217Z,12.61
2023-03-10T19:17:10.053Z,12.62
2023-03-10T19:18:41.666Z,12.61
2023-03-10T19:20:13.594Z,12.65
2023-03-10T19:21:45.523Z,12.64
2023-03-10T19:23:17.261Z,12.64
2023-03-10T19:24:49.384Z,12.67
2023-03-10T19:26:21.223Z,12.70
2023-03-10T19:27:53.278Z,12.73
2023-03-10T19:29:25.282Z,12.74
2023-03-10T19:30:57.223Z,12.76
2023-03-10T19:32:31.636Z,12.80
2023-03-10T19:34:11.102Z,12.82
2023-03-10T19:35:43.817Z,12.86
2023-03-10T19:37:22.403Z,12.89
2023-03-10T19:38:57.614Z,12.86
2023-03-10T19:40:29.695Z,12.72
2023-03-10T19:42:01.954Z,12.58
2023-03-10T19:43:34.292Z,12.47
2023-03-10T19:45:07.883Z,12.41
2023-03-10T19:46:43.052Z,12.39
2023-03-10T19:48:17.466Z,12.42
2023-03-10T19:49:53.642Z,12.43
2023-03-10T19:51:28.229Z,12.44
2023-03-10T19:53:03.476Z,12.43
2023-03-10T19:54:40.065Z,12.44
2023-03-10T19:56:13.041Z,12.42
2023-03-10T19:57:48.334Z,12.39
2023-03-10T19:59:28.489Z,12.42
2023-03-10T20:01:02.431Z,12.41
2023-03-10T20:02:43.156Z,12.45
2023-03-10T20:04:15.492Z,12.48
2023-03-10T20:08:57.542Z,12.52
2023-03-10T20:12:06.994Z,12.55
2023-03-10T20:14:18.377Z,12.55
2023-03-10T20:15:54.737Z,12.56
2023-03-10T20:17:34.097Z,12.57
2023-03-10T20:19:10.447Z,12.59
2023-03-10T20:20:51.209Z,12.60
2023-03-10T20:22:23.866Z,12.48
2023-03-10T20:23:56.526Z,12.40
2023-03-10T20:25:29.435Z,12.37
2023-03-10T20:27:04.070Z,12.34
2023-03-10T20:28:36.664Z,12.26
2023-03-10T20:30:10.916Z,12.20
2023-03-10T20:31:43.715Z,12.21
2023-03-10T20:33:17.000Z,12.21